Terminal Aerodrome Forecast
Issued by NWS

Home | Current Version | Previous Version | Text Only | Print | Product List | Glossary On
Versions: 1 2 3 4 5 6 7 8 9 10 11 12 13 14 15
000
FTUS42 KTBW 221100
TAFPIE
TAF
KPIE 221133Z 2212/2312 VRB06KT 5SM -RA BR SCT020 OVC100
     FM221600 18012G20KT P6SM SCT020 BKN040 OVC100
     FM230000 19006KT 6SM BR SCT020 BKN100=

USA.gov is the U.S. government's official web portal to all federal, state and local government web resources and services.